createdAt,value
2018-12-20T05:49:59.723Z,19.70
2018-12-20T05:55:10.514Z,19.10
2018-12-20T06:00:21.648Z,19.20
2018-12-20T06:05:32.832Z,19.40
2018-12-20T06:10:43.610Z,19.50
2018-12-20T06:15:53.608Z,19.60
2018-12-20T06:21:05.698Z,19.70
2018-12-20T06:26:18.425Z,19.70
2018-12-20T06:31:29.656Z,19.70
2018-12-20T06:36:41.019Z,19.70
2018-12-20T06:41:52.464Z,19.70
2018-12-20T06:47:02.984Z,19.80
2018-12-20T06:52:13.759Z,19.80
2018-12-20T06:57:24.672Z,19.80
2018-12-20T07:02:36.224Z,19.80
2018-12-20T07:07:48.670Z,19.80
2018-12-20T07:12:59.610Z,19.80
2018-12-20T07:18:11.367Z,19.80
2018-12-20T07:23:21.925Z,19.80
2018-12-20T07:28:32.934Z,19.80
2018-12-20T07:33:44.617Z,19.80
2018-12-20T07:38:56.229Z,19.80
2018-12-20T07:44:06.837Z,19.80
2018-12-20T07:49:18.812Z,19.80
2018-12-20T07:59:42.209Z,19.90
2018-12-20T08:04:52.573Z,19.80
2018-12-20T08:10:03.596Z,19.80
2018-12-20T08:15:15.000Z,19.80
2018-12-20T08:20:25.913Z,19.80
2018-12-20T08:25:36.619Z,19.80
2018-12-20T08:30:48.670Z,19.80
2018-12-20T08:35:59.780Z,19.80
2018-12-20T08:41:10.815Z,19.80
2018-12-20T08:46:21.672Z,19.80
2018-12-20T08:51:49.055Z,19.80
2018-12-20T08:56:59.678Z,19.80
2018-12-20T09:02:11.398Z,19.80
2018-12-20T09:07:22.315Z,19.80
2018-12-20T09:12:36.620Z,19.80
2018-12-20T09:17:47.981Z,19.80
2018-12-20T09:23:11.397Z,19.90
2018-12-20T09:28:22.821Z,19.80
2018-12-20T09:33:40.377Z,19.80
2018-12-20T09:38:51.628Z,19.90
2018-12-20T09:47:30.321Z,19.90
2018-12-20T09:52:41.216Z,19.90
2018-12-20T09:57:52.735Z,19.90
2018-12-20T10:03:03.615Z,19.90
2018-12-20T10:08:15.729Z,19.90
2018-12-20T10:13:27.475Z,19.90
2018-12-20T10:18:43.820Z,19.90
2018-12-20T10:23:54.858Z,19.90
2018-12-20T10:29:05.754Z,19.80
2018-12-20T10:34:16.759Z,19.80
2018-12-20T10:39:27.743Z,19.80
2018-12-20T10:44:39.494Z,19.80
2018-12-20T10:49:58.867Z,19.80
2018-12-20T10:55:09.709Z,19.80
2018-12-20T11:00:20.624Z,19.80
2018-12-20T11:05:42.529Z,19.80
2018-12-20T11:11:09.777Z,19.80
2018-12-20T11:16:21.206Z,19.80
2018-12-20T11:21:32.481Z,19.90
2018-12-20T11:26:43.876Z,19.80
2018-12-20T11:31:55.251Z,19.80
2018-12-20T11:37:06.899Z,19.90
2018-12-20T11:42:23.788Z,19.90
2018-12-20T11:47:34.525Z,19.90
2018-12-20T11:52:46.510Z,19.90
2018-12-20T11:57:58.227Z,19.90
2018-12-20T12:03:20.716Z,19.90
2018-12-20T12:08:31.671Z,19.90
2018-12-20T12:13:41.597Z,19.90
2018-12-20T12:18:52.904Z,19.90
2018-12-20T12:24:03.669Z,19.80
2018-12-20T12:29:15.391Z,19.80
2018-12-20T12:34:26.667Z,19.90
2018-12-20T12:39:37.905Z,19.90
2018-12-20T12:45:15.792Z,19.90
2018-12-20T12:50:39.569Z,19.80
2018-12-20T12:55:51.881Z,19.90
2018-12-20T13:01:03.703Z,19.80
2018-12-20T13:06:14.605Z,19.90
2018-12-20T13:11:26.482Z,19.90
2018-12-20T13:16:37.786Z,19.90
2018-12-20T13:21:48.712Z,19.90
2018-12-20T13:26:59.864Z,19.90
2018-12-20T13:32:24.224Z,19.90
2018-12-20T13:37:36.509Z,19.80
2018-12-20T13:42:47.676Z,19.80
2018-12-20T13:48:01.361Z,19.80
2018-12-20T13:53:14.713Z,19.80
2018-12-20T13:58:25.698Z,19.80
2018-12-20T14:03:37.430Z,19.80
2018-12-20T14:08:49.774Z,19.70
2018-12-20T14:14:03.196Z,19.70
2018-12-20T14:19:14.709Z,19.70
2018-12-20T14:24:26.420Z,19.70
2018-12-20T14:29:37.913Z,19.70
2018-12-20T14:34:49.329Z,19.70
2018-12-20T14:40:04.697Z,19.60
2018-12-20T14:45:16.330Z,19.60
2018-12-20T14:50:35.229Z,19.60
2018-12-20T14:55:47.567Z,19.60
2018-12-20T15:01:04.524Z,19.60
2018-12-20T15:06:19.742Z,22.40
2018-12-20T15:11:30.637Z,31.10
2018-12-20T15:16:41.544Z,35.60
2018-12-20T15:30:34.450Z,40.20
2018-12-20T15:35:45.907Z,40.60
2018-12-20T15:41:06.799Z,40.00
2018-12-20T15:46:17.647Z,38.40
2018-12-20T15:51:58.820Z,36.50
2018-12-20T15:57:09.844Z,34.50
2018-12-20T16:02:22.751Z,32.70
2018-12-20T16:07:34.569Z,31.10
2018-12-20T16:12:51.824Z,29.70
2018-12-20T16:18:02.758Z,28.50
2018-12-20T16:23:14.599Z,27.40
2018-12-20T16:33:38.902Z,25.90
2018-12-20T16:39:00.610Z,25.00
2018-12-20T16:44:12.226Z,24.40
2018-12-20T16:49:23.828Z,23.80
2018-12-20T16:54:34.439Z,23.40
2018-12-20T17:02:25.559Z,27.10
2018-12-20T17:07:36.873Z,30.60
2018-12-20T17:12:52.211Z,33.50
2018-12-20T17:18:03.709Z,35.50
2018-12-20T17:23:16.648Z,35.60
2018-12-20T17:28:27.658Z,34.40
2018-12-20T17:33:50.612Z,33.00
2018-12-20T17:39:01.823Z,31.40
2018-12-20T17:44:26.306Z,30.00
2018-12-20T17:49:37.631Z,28.60
2018-12-20T17:54:48.633Z,27.50
2018-12-20T18:00:06.781Z,26.50
2018-12-20T18:05:18.305Z,25.70
2018-12-20T18:10:42.719Z,24.90
2018-12-20T18:15:53.515Z,24.40
2018-12-20T18:21:24.422Z,24.00
2018-12-20T18:26:35.797Z,23.60
2018-12-20T18:32:12.513Z,23.10
2018-12-20T18:37:23.637Z,22.70
2018-12-20T18:42:37.560Z,23.70
2018-12-20T18:47:50.615Z,27.90
2018-12-20T18:53:01.390Z,32.00
2018-12-20T18:58:19.500Z,34.70
2018-12-20T19:06:41.888Z,35.30
2018-12-20T19:17:41.666Z,32.50
2018-12-20T19:22:56.485Z,31.20
2018-12-20T19:28:08.646Z,29.80
2018-12-20T19:33:21.613Z,28.60
2018-12-20T19:38:32.889Z,27.50
2018-12-20T19:43:45.525Z,26.60
2018-12-20T19:48:56.648Z,25.80
2018-12-20T19:54:11.047Z,25.10
2018-12-20T19:59:28.787Z,24.70
2018-12-20T20:05:04.663Z,24.20
2018-12-20T20:10:15.812Z,23.70
2018-12-20T20:15:26.801Z,23.30
2018-12-20T20:20:46.778Z,23.00
2018-12-20T20:25:59.330Z,22.60
2018-12-20T20:31:11.403Z,22.30
2018-12-20T20:36:22.761Z,22.10
2018-12-20T20:41:35.887Z,21.90
2018-12-20T20:46:47.733Z,21.70
2018-12-20T20:58:01.751Z,21.40
2018-12-20T21:03:17.526Z,21.30
2018-12-20T21:08:28.726Z,21.20
2018-12-20T21:13:43.597Z,21.10
2018-12-20T21:18:55.593Z,21.00
2018-12-20T21:24:06.906Z,20.90
2018-12-20T21:29:18.624Z,20.80
2018-12-20T21:34:43.843Z,20.80
2018-12-20T21:39:58.689Z,20.70
2018-12-20T21:45:11.324Z,20.70
2018-12-20T21:50:26.721Z,20.60
2018-12-20T21:55:38.434Z,20.60
2018-12-20T22:00:52.814Z,20.50
2018-12-20T22:11:20.811Z,20.50
2018-12-20T22:16:31.980Z,20.50
2018-12-20T22:21:43.909Z,20.40
2018-12-20T22:26:54.803Z,20.40
2018-12-20T22:37:58.804Z,20.30
2018-12-20T22:43:15.648Z,20.30
2018-12-20T22:48:27.786Z,20.30
2018-12-20T22:58:50.583Z,20.30
2018-12-20T23:04:01.695Z,20.30
2018-12-20T23:09:12.722Z,20.20
2018-12-20T23:14:23.880Z,20.20
2018-12-20T23:19:34.885Z,20.20
2018-12-20T23:25:11.574Z,20.10
2018-12-20T23:30:22.882Z,20.10
2018-12-20T23:35:33.900Z,20.10
2018-12-20T23:41:05.585Z,20.10
2018-12-20T23:46:16.669Z,20.00
2018-12-20T23:51:31.772Z,20.00
2018-12-20T23:56:43.232Z,20.00
